Time;durP1;ratioP1;P1;durP2;ratioP2;P2;SDS_P1;SDS_P2;PMS_P1;PMS_P2;Temp;Humidity;BMP_temperature;BMP_pressure;BME280_temperature;BME280_humidity;BME280_pressure;Samples;Min_cycle;Max_cycle;Signal;HPM_P1;HPM_P2
2022/06/20 00:01:47;;;;;;;3.52;2.25;;;;;;;24.76;49.85;101630.72;1741009;80;21080;-51
2022/06/20 00:04:17;;;;;;;2.12;2.00;;;;;;;24.76;49.71;101633.37;1742145;80;21061;-51
2022/06/20 00:06:45;;;;;;;2.60;2.40;;;;;;;24.76;49.71;101633.37;1742159;80;21017;-53
2022/06/20 00:09:13;;;;;;;2.37;2.17;;;;;;;24.77;49.44;101627.13;1748014;82;21053;-50
2022/06/20 00:11:47;;;;;;;2.75;2.12;;;;;;;24.77;49.44;101627.13;1745296;80;21172;-51
2022/06/20 00:14:18;;;;;;;2.70;2.50;;;;;;;24.76;49.77;101632.05;1737149;80;21084;-49
2022/06/20 00:16:45;;;;;;;2.65;2.27;;;;;;;24.75;49.73;101637.02;1740072;80;21009;-50
2022/06/20 00:19:12;;;;;;;3.02;2.30;;;;;;;24.73;49.78;101638.89;1740755;82;21029;-51
2022/06/20 00:21:41;;;;;;;2.10;1.95;;;;;;;24.68;49.79;101637.00;1740210;80;20994;-49
2022/06/20 00:24:08;;;;;;;4.17;2.40;;;;;;;24.68;49.79;101637.00;1737611;80;21500;-51
2022/06/20 00:26:35;;;;;;;3.45;2.50;;;;;;;24.65;49.69;101633.20;1722853;82;21066;-50
2022/06/20 00:29:05;;;;;;;3.00;2.70;;;;;;;24.63;49.57;101629.31;1736481;81;20996;-50
2022/06/20 00:31:34;;;;;;;2.62;2.42;;;;;;;24.61;49.58;101625.05;1650950;86;21031;-50
2022/06/20 00:34:01;;;;;;;2.55;2.35;;;;;;;24.59;49.57;101628.28;1691946;83;20991;-48
2022/06/20 00:36:29;;;;;;;2.20;2.02;;;;;;;24.57;49.55;101622.21;1689870;83;20995;-50
2022/06/20 00:38:56;;;;;;;4.03;2.30;;;;;;;24.56;49.43;101623.18;1693864;83;21114;-49
2022/06/20 00:41:29;;;;;;;2.60;2.40;;;;;;;24.54;49.46;101625.09;1690434;83;21023;-52
2022/06/20 00:43:55;;;;;;;3.35;2.27;;;;;;;24.52;49.32;101622.54;1690903;84;21007;-53
2022/06/20 00:46:35;;;;;;;2.42;2.22;;;;;;;24.50;49.33;101618.27;1690389;83;21527;-50
2022/06/20 00:49:10;;;;;;;2.40;2.15;;;;;;;24.47;49.36;101617.13;1670914;84;21018;-49
2022/06/20 00:51:42;;;;;;;2.17;2.08;;;;;;;24.47;49.36;101617.13;1646217;85;21034;-53
2022/06/20 00:54:11;;;;;;;;;;;;;;;24.44;49.42;101609.36;1648688;85;21109;-50
2022/06/20 00:57:02;;;;;;;2.40;2.25;;;;;;;24.37;49.33;101617.36;1642985;85;20438;-50
2022/06/20 00:59:36;;;;;;;2.70;2.33;;;;;;;24.37;49.33;101617.36;1650570;85;21031;-50
2022/06/20 01:02:06;;;;;;;2.50;2.30;;;;;;;24.33;49.45;101611.39;1650762;85;21059;-50
2022/06/20 01:04:39;;;;;;;3.20;2.00;;;;;;;24.30;49.46;101613.41;1651108;85;21019;-52
2022/06/20 01:07:12;;;;;;;3.98;2.33;;;;;;;24.27;49.69;101606.47;1599375;89;21127;-50
2022/06/20 01:09:42;;;;;;;3.62;2.62;;;;;;;24.26;49.69;101608.73;1567855;91;21136;-49
2022/06/20 01:12:13;;;;;;;2.22;2.05;;;;;;;24.23;49.67;101597.82;1569662;91;21097;-56
2022/06/20 01:14:41;;;;;;;2.27;2.08;;;;;;;24.23;49.69;101603.14;1601904;89;21119;-49
2022/06/20 01:17:25;;;;;;;2.62;2.22;;;;;;;24.23;49.65;101597.82;1598506;89;21592;-50
2022/06/20 01:20:10;;;;;;;2.25;2.05;;;;;;;24.22;49.61;101593.47;1594300;89;21154;-48
2022/06/20 01:22:52;;;;;;;2.92;2.20;;;;;;;24.21;49.61;101591.75;1595994;89;21367;-51
2022/06/20 01:25:59;;;;;;;;;;;;;;;24.20;49.49;101595.38;1593910;89;21087;-49
2022/06/20 01:28:29;;;;;;;2.12;2.02;;;;;;;24.17;49.43;101592.90;1540540;89;20120;-48
2022/06/20 01:30:56;;;;;;;3.33;2.30;;;;;;;24.11;49.67;101591.97;1599611;88;21120;-49
2022/06/20 01:33:23;;;;;;;2.33;2.22;;;;;;;24.07;49.67;101590.97;1613480;86;21014;-50
2022/06/20 01:38:36;;;;;;;2.25;2.05;;;;;;;23.99;49.67;101585.22;1626223;86;21069;-49
2022/06/20 01:43:48;;;;;;;2.20;2.00;;;;;;;23.95;49.06;101581.05;1643056;84;21054;-50
2022/06/20 01:46:15;;;;;;;2.67;2.25;;;;;;;23.93;48.71;101582.50;1696964;84;21089;-49
2022/06/20 01:51:23;;;;;;;3.60;2.00;;;;;;;23.93;48.07;101584.29;1650179;86;21567;-52
2022/06/20 01:53:50;;;;;;;2.37;2.17;;;;;;;23.91;48.16;101572.44;1656362;86;21472;-49
2022/06/20 01:56:18;;;;;;;2.30;2.10;;;;;;;23.91;48.16;101572.44;1662455;85;21050;-49
2022/06/20 01:58:50;;;;;;;3.17;2.10;;;;;;;23.90;47.89;101581.38;1625308;88;21573;-51
2022/06/20 02:01:18;;;;;;;2.72;2.33;;;;;;;23.88;47.85;101581.95;1672371;85;21136;-52
2022/06/20 02:03:46;;;;;;;2.87;2.25;;;;;;;23.86;48.02;101582.53;1671006;85;21086;-49
2022/06/20 02:06:14;;;;;;;2.12;2.00;;;;;;;23.84;48.08;101581.77;1671671;85;21070;-50
2022/06/20 02:08:44;;;;;;;3.40;1.95;;;;;;;23.83;48.21;101580.52;1670618;85;21644;-51
2022/06/20 02:11:40;;;;;;;1.90;1.80;;;;;;;23.82;48.22;101588.95;1669489;85;21026;-49
2022/06/20 02:14:12;;;;;;;2.10;2.00;;;;;;;23.80;48.22;101588.20;1630483;88;21862;-49
2022/06/20 02:16:43;;;;;;;3.22;2.10;;;;;;;23.82;48.30;101584.97;1602721;88;21097;-50
2022/06/20 02:19:14;;;;;;;4.00;2.02;;;;;;;23.81;48.37;101586.41;1604895;88;21068;-50
2022/06/20 02:21:42;;;;;;;;;;;;;;;23.81;48.41;101583.28;1608158;88;21113;-50
2022/06/20 02:24:14;;;;;;;3.05;2.33;;;;;;;23.82;48.33;101590.29;1561358;89;20199;-50
2022/06/20 02:26:41;;;;;;;2.75;2.40;;;;;;;23.80;48.42;101588.20;1629578;87;21217;-49
2022/06/20 02:29:22;;;;;;;2.47;2.27;;;;;;;23.80;48.25;101590.86;1623914;87;21050;-49
2022/06/20 02:31:58;;;;;;;2.55;2.33;;;;;;;23.79;48.10;101589.17;1624267;88;21062;-50
2022/06/20 02:34:28;;;;;;;2.52;2.33;;;;;;;23.78;48.06;101594.09;1629448;88;21066;-49
2022/06/20 02:36:56;;;;;;;2.17;2.08;;;;;;;23.77;48.07;101592.40;1629865;88;21041;-49
2022/06/20 02:39:24;;;;;;;2.42;2.22;;;;;;;23.76;48.13;101589.34;1629377;88;21550;-51
2022/06/20 02:41:56;;;;;;;2.58;2.37;;;;;;;23.76;48.23;101585.36;1629861;88;21078;-49
2022/06/20 02:44:23;;;;;;;2.37;2.17;;;;;;;23.76;48.32;101590.68;1624208;87;21065;-51
2022/06/20 02:46:51;;;;;;;2.42;2.22;;;;;;;23.76;48.40;101592.00;1629569;88;21557;-50
2022/06/20 02:49:20;;;;;;;3.35;3.02;;;;;;;23.78;48.49;101588.78;1621336;88;21114;-51
2022/06/20 02:51:50;;;;;;;2.77;2.58;;;;;;;23.80;48.50;101592.69;1621269;87;21030;-50
2022/06/20 02:54:22;;;;;;;2.22;1.95;;;;;;;23.82;48.52;101592.95;1621523;87;21010;-49
2022/06/20 02:56:52;;;;;;;2.42;2.25;;;;;;;23.83;48.54;101593.34;1621338;87;21546;-50
2022/06/20 02:59:26;;;;;;;2.95;2.33;;;;;;;23.83;48.74;101597.33;1607752;87;21010;-51
2022/06/20 03:02:01;;;;;;;2.37;2.25;;;;;;;23.84;48.89;101591.55;1621287;87;21138;-50
2022/06/20 03:04:28;;;;;;;4.72;2.20;;;;;;;23.83;48.92;101593.34;1603940;87;21661;-50
2022/06/20 03:06:58;;;;;;;2.87;2.65;;;;;;;23.82;48.99;101598.27;1621085;87;21090;-51
2022/06/20 03:09:29;;;;;;;3.03;2.57;;;;;;;23.83;49.09;101600.45;1621541;88;21034;-50
2022/06/20 03:11:56;;;;;;;2.37;2.20;;;;;;;23.84;49.17;101603.03;1621465;87;21030;-50
2022/06/20 03:14:31;;;;;;;3.55;2.30;;;;;;;23.84;49.27;101599.05;1621086;87;21058;-50
2022/06/20 03:16:58;;;;;;;2.50;2.30;;;;;;;23.84;49.47;101599.05;1621574;87;21507;-51
2022/06/20 03:19:27;;;;;;;2.72;2.47;;;;;;;23.86;49.52;101603.80;1645728;83;21422;-51
2022/06/20 03:21:55;;;;;;;2.58;2.37;;;;;;;23.87;49.63;101604.16;1646034;85;21094;-51
2022/06/20 03:24:24;;;;;;;2.77;2.35;;;;;;;23.90;49.70;101607.96;1717789;83;21012;-49
2022/06/20 03:26:51;;;;;;;3.92;2.37;;;;;;;23.94;49.68;101604.62;1696222;84;21088;-53
2022/06/20 03:29:19;;;;;;;2.70;2.50;;;;;;;23.98;49.52;101616.30;1729752;81;21030;-50
2022/06/20 03:31:46;;;;;;;2.72;2.40;;;;;;;23.99;49.45;101612.67;1733495;81;21495;-49
2022/06/20 03:34:13;;;;;;;4.78;2.83;;;;;;;24.03;49.44;101610.23;1733406;81;21019;-50
2022/06/20 03:36:41;;;;;;;3.27;2.70;;;;;;;24.06;49.25;101614.50;1733439;81;21062;-51
2022/06/20 03:39:09;;;;;;;2.83;2.52;;;;;;;24.07;49.25;101615.72;1733055;81;21057;-51
2022/06/20 03:41:37;;;;;;;2.27;2.17;;;;;;;24.11;49.50;101617.23;1734306;81;21499;-50
2022/06/20 03:44:10;;;;;;;2.90;2.60;;;;;;;24.22;49.63;101616.55;1701413;84;21002;-51
2022/06/20 03:46:54;;;;;;;5.72;2.62;;;;;;;25.03;48.82;101628.86;1734352;82;21506;-50
2022/06/20 03:49:30;;;;;;;3.95;2.37;;;;;;;25.03;48.82;101628.86;1651375;86;21066;-50
2022/06/20 03:52:03;;;;;;;2.27;2.08;;;;;;;25.86;47.49;101631.48;1664325;84;21109;-51
2022/06/20 03:54:50;;;;;;;2.50;2.25;;;;;;;26.75;45.73;101635.09;1617378;88;21038;-50
2022/06/20 03:57:25;;;;;;;2.40;2.20;;;;;;;27.66;43.97;101629.35;1617379;88;21065;-50
2022/06/20 04:00:06;;;;;;;1.98;1.80;;;;;;;28.54;42.30;101630.56;1617288;88;21541;-50
2022/06/20 04:02:56;;;;;;;2.02;1.92;;;;;;;29.26;40.88;101624.06;1617540;88;21595;-50
2022/06/20 04:05:28;;;;;;;2.70;1.80;;;;;;;29.76;39.64;101621.84;1617590;88;21111;-51
2022/06/20 04:08:03;;;;;;;2.17;1.98;;;;;;;29.94;38.67;101628.29;1573896;91;21078;-53
2022/06/20 04:13:30;;;;;;;1.95;1.77;;;;;;;29.81;38.53;101626.33;1573730;91;21049;-50
2022/06/20 04:16:13;;;;;;;1.95;1.85;;;;;;;29.79;38.56;101625.62;1573728;91;21114;-50
2022/06/20 04:18:49;;;;;;;2.40;1.72;;;;;;;29.88;38.11;101630.66;1573492;91;21091;-49
2022/06/20 04:21:27;;;;;;;1.85;1.75;;;;;;;29.86;37.96;101620.56;1525227;93;21095;-49
2022/06/20 04:24:25;;;;;;;2.65;1.80;;;;;;;29.68;37.98;101624.33;1525238;93;21599;-51
2022/06/20 04:27:11;;;;;;;1.70;1.52;;;;;;;29.43;38.30;101622.94;1531658;93;21159;-48
2022/06/20 04:29:50;;;;;;;1.70;1.60;;;;;;;29.11;38.67;101621.31;1562420;90;21594;-49
2022/06/20 04:32:22;;;;;;;3.00;1.92;;;;;;;28.79;39.12;101622.22;1519584;93;21622;-54
2022/06/20 04:34:56;;;;;;;2.17;1.80;;;;;;;28.55;39.75;101626.06;1489394;96;21137;-50
2022/06/20 04:37:32;;;;;;;2.87;2.00;;;;;;;28.33;40.24;101615.44;1477148;96;21146;-51
2022/06/20 04:40:07;;;;;;;1.70;1.60;;;;;;;28.13;40.68;101615.75;1488756;96;21084;-50
2022/06/20 04:42:56;;;;;;;1.87;1.77;;;;;;;27.94;40.88;101608.81;1456114;98;21132;-50
2022/06/20 04:45:31;;;;;;;1.98;1.80;;;;;;;27.78;41.37;101609.69;1458611;97;21130;-51
2022/06/20 04:48:04;;;;;;;3.17;1.98;;;;;;;27.63;41.90;101598.86;1464898;97;21093;-50
2022/06/20 04:50:32;;;;;;;2.62;2.42;;;;;;;27.52;42.22;101601.52;1473188;97;21205;-48
2022/06/20 04:53:08;;;;;;;1.82;1.72;;;;;;;27.44;42.46;101599.95;1463908;97;21112;-50
2022/06/20 04:55:38;;;;;;;2.30;2.00;;;;;;;27.38;42.69;101604.82;1452970;98;21173;-49
2022/06/20 04:58:08;;;;;;;2.50;1.72;;;;;;;27.35;42.76;101601.03;1457320;97;21123;-50
2022/06/20 05:00:39;;;;;;;2.70;1.70;;;;;;;27.33;42.28;101600.27;1495830;95;21113;-49
2022/06/20 05:03:07;;;;;;;2.10;1.70;;;;;;;27.34;42.04;101597.16;1477526;96;21116;-49
2022/06/20 05:05:39;;;;;;;2.33;2.05;;;;;;;27.37;42.16;101593.75;1479884;96;21625;-49
2022/06/20 05:08:07;;;;;;;1.72;1.62;;;;;;;27.47;42.08;101598.38;1478227;96;21109;-49
2022/06/20 05:10:42;;;;;;;3.00;1.80;;;;;;;27.61;41.69;101598.14;1477853;96;21652;-51
2022/06/20 05:13:18;;;;;;;3.92;1.70;;;;;;;27.80;41.40;101598.38;1433936;99;21172;-53
2022/06/20 05:15:48;;;;;;;1.80;1.70;;;;;;;28.08;40.95;101605.41;1409541;101;21105;-51
2022/06/20 05:18:37;;;;;;;1.70;1.60;;;;;;;28.39;39.93;101597.05;1414128;101;21140;-50
2022/06/20 05:21:12;;;;;;;1.60;1.50;;;;;;;28.73;39.22;101598.63;1446156;98;21124;-51
2022/06/20 05:23:43;;;;;;;2.35;1.62;;;;;;;29.16;38.76;101603.05;1426074;99;21103;-50
2022/06/20 05:26:14;;;;;;;2.58;1.62;;;;;;;29.51;38.17;101592.28;1453632;98;21078;-50
2022/06/20 05:28:41;;;;;;;2.80;1.80;;;;;;;29.81;37.59;101595.47;1473806;94;21094;-50
2022/06/20 05:31:08;;;;;;;4.75;1.50;;;;;;;30.05;37.30;101595.95;1461992;98;21084;-51
2022/06/20 05:34:00;;;;;;;2.85;1.72;;;;;;;30.23;37.08;101597.48;1514876;94;21116;-53
2022/06/20 05:36:35;;;;;;;1.45;1.35;;;;;;;30.36;36.74;101592.70;1514741;95;21653;-50
2022/06/20 05:39:09;;;;;;;1.70;1.60;;;;;;;30.50;36.70;101602.53;1510821;95;21189;-49
2022/06/20 05:41:36;;;;;;;1.60;1.50;;;;;;;30.60;36.20;101593.64;1512153;94;21620;-52
2022/06/20 05:44:07;;;;;;;1.55;1.45;;;;;;;30.66;36.13;101590.38;1502810;95;21137;-50
2022/06/20 05:46:50;;;;;;;2.05;1.57;;;;;;;30.70;35.69;101581.05;1518109;94;21098;-50
2022/06/20 05:49:30;;;;;;;1.50;1.40;;;;;;;30.74;35.64;101579.77;1531999;94;21102;-49
2022/06/20 05:51:58;;;;;;;2.27;1.40;;;;;;;30.80;35.64;101589.95;1478846;96;21124;-51
2022/06/20 05:54:30;;;;;;;2.20;1.50;;;;;;;30.83;35.91;101587.81;1472487;97;21165;-50
2022/06/20 05:57:04;;;;;;;1.50;1.40;;;;;;;30.86;35.83;101587.57;1478833;96;21585;-50
2022/06/20 05:59:39;;;;;;;1.62;1.37;;;;;;;30.91;35.41;101585.31;1466511;96;21142;-49
2022/06/20 06:02:18;;;;;;;2.05;1.60;;;;;;;30.99;35.61;101579.20;1457574;98;21168;-49
2022/06/20 06:05:02;;;;;;;1.98;1.40;;;;;;;31.10;35.18;101577.18;1426113;100;21114;-53
2022/06/20 06:07:38;;;;;;;2.08;1.98;;;;;;;31.22;35.25;101575.19;1421592;98;21634;-49
2022/06/20 06:10:34;;;;;;;2.95;1.55;;;;;;;31.34;35.47;101568.63;1426016;100;21046;-52
2022/06/20 06:13:13;;;;;;;2.17;2.05;;;;;;;31.44;36.08;101571.30;1403064;101;21658;-49
2022/06/20 06:16:46;;;;;;;2.00;1.70;;;;;;;31.49;36.10;101570.38;1383252;103;21156;-48
2022/06/20 06:18:16;;;;;;;2.22;1.80;;;;;;;31.53;36.42;101567.73;1354506;105;21712;-52
2022/06/20 06:20:45;;;;;;;2.35;1.47;;;;;;;31.65;36.20;101572.77;1358416;104;21169;-50
2022/06/20 06:23:12;;;;;;;2.12;1.82;;;;;;;31.84;35.71;101566.44;1359583;105;21254;-50
2022/06/20 06:25:42;;;;;;;2.08;1.80;;;;;;;32.11;35.31;101566.94;1344974;105;21110;-50
2022/06/20 06:28:18;;;;;;;2.33;1.40;;;;;;;32.41;35.11;101566.55;1420197;98;21179;-49
2022/06/20 06:31:02;;;;;;;2.62;2.00;;;;;;;32.77;34.82;101555.59;1448521;98;21098;-52
2022/06/20 06:33:50;;;;;;;2.35;1.70;;;;;;;33.11;34.55;101546.27;1455030;98;21134;-52
2022/06/20 06:36:34;;;;;;;5.08;1.82;;;;;;;33.36;33.63;101552.14;1457558;98;21141;-51
2022/06/20 06:39:24;;;;;;;2.17;1.40;;;;;;;33.44;33.33;101542.73;1438927;99;21167;-54
2022/06/20 06:41:56;;;;;;;2.05;1.60;;;;;;;33.37;33.03;101540.32;1443234;99;21579;-49
2022/06/20 06:44:37;;;;;;;4.55;1.50;;;;;;;33.18;33.17;101538.38;1430127;99;21077;-51
2022/06/20 06:47:05;;;;;;;2.65;1.47;;;;;;;33.00;33.12;101531.69;1430856;99;21121;-52
2022/06/20 06:49:43;;;;;;;1.85;1.55;;;;;;;32.81;33.64;101534.06;1430581;99;21143;-50
2022/06/20 06:52:15;;;;;;;1.82;1.52;;;;;;;32.67;34.07;101536.48;1372260;104;21211;-50
2022/06/20 06:54:51;;;;;;;1.42;1.32;;;;;;;32.53;34.13;101531.66;1374590;104;21182;-52
2022/06/20 06:57:41;;;;;;;3.47;1.45;;;;;;;32.40;34.34;101528.47;1378936;103;21182;-51
2022/06/20 07:00:17;;;;;;;2.17;1.50;;;;;;;32.27;34.70;101536.13;1388849;103;21624;-52
2022/06/20 07:02:54;;;;;;;3.22;1.60;;;;;;;32.16;34.73;101525.56;1404401;102;21105;-50
2022/06/20 07:05:39;;;;;;;2.98;1.65;;;;;;;32.05;34.62;101524.80;1375101;104;21628;-56
2022/06/20 07:08:14;;;;;;;1.45;1.35;;;;;;;31.98;34.70;101519.67;1388227;103;21107;-51
2022/06/20 07:10:55;;;;;;;1.50;1.40;;;;;;;31.98;34.97;101518.84;1388161;103;21107;-54
2022/06/20 07:13:55;;;;;;;1.55;1.40;;;;;;;31.99;34.96;101509.26;1439571;98;21595;-49
2022/06/20 07:16:42;;;;;;;1.57;1.47;;;;;;;31.98;34.66;101514.80;1428515;99;22019;-49
2022/06/20 07:19:12;;;;;;;1.70;1.60;;;;;;;31.93;34.82;101512.56;1446089;99;21154;-49
2022/06/20 07:21:40;;;;;;;2.37;1.30;;;;;;;31.87;35.05;101506.91;1446522;99;21657;-52
2022/06/20 07:24:20;;;;;;;1.82;1.72;;;;;;;31.85;35.18;101509.76;1446003;99;21078;-53
2022/06/20 07:26:58;;;;;;;1.32;1.22;;;;;;;31.89;35.30;101506.25;1428953;100;21189;-49
2022/06/20 07:29:30;;;;;;;1.42;1.32;;;;;;;32.02;34.99;101510.80;1436715;100;21139;-51
2022/06/20 07:32:07;;;;;;;1.95;1.20;;;;;;;32.25;34.53;101511.19;1485103;97;21615;-49
2022/06/20 07:34:42;;;;;;;1.40;1.30;;;;;;;32.47;34.11;101505.34;1505614;95;21121;-51
2022/06/20 07:37:13;;;;;;;1.32;1.20;;;;;;;32.61;33.95;101506.12;1503108;95;21088;-53
2022/06/20 07:40:01;;;;;;;1.32;1.22;;;;;;;32.70;33.60;101505.19;1503222;95;21656;-51
2022/06/20 07:42:39;;;;;;;1.30;1.20;;;;;;;32.70;32.96;101502.00;1479082;97;21119;-52
2022/06/20 07:45:16;;;;;;;1.60;1.40;;;;;;;32.67;32.89;101496.05;1501735;95;21213;-57
2022/06/20 07:47:53;;;;;;;1.22;1.12;;;;;;;32.62;33.06;101498.39;1503490;92;21113;-51
2022/06/20 07:50:46;;;;;;;2.60;1.62;;;;;;;32.55;33.47;101494.63;1515351;93;21630;-49
2022/06/20 07:53:31;;;;;;;2.35;1.10;;;;;;;32.47;33.20;101497.27;1537584;91;21139;-51
2022/06/20 07:56:01;;;;;;;2.52;1.40;;;;;;;32.40;33.12;101493.45;1521650;93;21142;-53
2022/06/20 07:58:31;;;;;;;2.45;0.90;;;;;;;32.32;33.45;101488.00;1533473;93;21082;-52
2022/06/20 08:00:58;;;;;;;1.10;1.10;;;;;;;32.27;33.61;101490.34;1539832;93;21088;-52
2022/06/20 08:03:42;;;;;;;1.40;1.30;;;;;;;32.23;33.45;101493.84;1487282;94;21664;-52
2022/06/20 08:06:45;;;;;;;1.50;1.40;;;;;;;32.19;33.75;101487.58;1487553;96;21106;-50
2022/06/20 08:09:27;;;;;;;1.10;1.10;;;;;;;32.15;34.23;101495.09;1479832;96;21093;-52
2022/06/20 08:12:13;;;;;;;2.17;1.12;;;;;;;32.15;34.48;101501.00;1487263;96;21109;-50
2022/06/20 08:14:48;;;;;;;1.35;1.10;;;;;;;32.12;34.38;101497.26;1482200;96;21150;-50
2022/06/20 08:17:15;;;;;;;1.80;1.20;;;;;;;32.11;34.22;101496.92;1482815;96;21074;-51
2022/06/20 08:19:44;;;;;;;1.20;1.20;;;;;;;32.09;33.98;101497.91;1487531;96;21118;-49
2022/06/20 08:22:28;;;;;;;1.37;1.20;;;;;;;32.09;33.63;101491.18;1487052;96;21098;-51
2022/06/20 08:25:00;;;;;;;1.32;1.22;;;;;;;32.11;33.63;101496.92;1487200;96;21115;-51
2022/06/20 08:27:38;;;;;;;1.40;1.30;;;;;;;32.11;33.73;101492.89;1478816;96;21164;-49
2022/06/20 08:30:43;;;;;;;1.70;1.60;;;;;;;32.11;33.69;101498.27;1574727;89;21070;-49
2022/06/20 08:33:18;;;;;;;1.32;1.22;;;;;;;32.09;33.70;101496.56;1508741;95;21084;-50
2022/06/20 08:35:53;;;;;;;1.27;1.17;;;;;;;32.10;33.76;101490.69;1520405;92;21103;-50
2022/06/20 08:38:25;;;;;;;1.90;1.45;;;;;;;32.08;33.68;101492.20;1522143;92;21127;-50
2022/06/20 08:41:33;;;;;;;1.40;1.30;;;;;;;32.08;33.58;101486.81;1480999;95;21160;-51
2022/06/20 08:44:05;;;;;;;1.20;1.00;;;;;;;32.09;33.68;101483.10;1486903;95;21104;-52
2022/06/20 08:47:11;;;;;;;1.30;1.20;;;;;;;32.11;33.81;101478.08;1489539;95;21139;-49
2022/06/20 08:49:53;;;;;;;1.10;1.10;;;;;;;32.11;33.40;101479.42;1412431;100;21184;-49
2022/06/20 08:52:45;;;;;;;1.62;1.15;;;;;;;32.12;33.81;101471.19;1443601;94;21200;-48
2022/06/20 08:55:44;;;;;;;1.55;1.25;;;;;;;32.14;33.55;101477.75;1477854;96;21136;-49
2022/06/20 08:58:32;;;;;;;1.67;1.10;;;;;;;32.17;33.38;101478.80;1477140;96;21104;-55
2022/06/20 09:01:13;;;;;;;1.40;1.30;;;;;;;32.18;32.98;101474.60;1439124;98;21157;-51
2022/06/20 09:04:12;;;;;;;1.30;1.17;;;;;;;32.20;32.89;101474.44;1439351;99;21200;-49
2022/06/20 09:07:03;;;;;;;1.20;1.10;;;;;;;32.20;33.17;101476.64;1391570;102;21144;-51
2022/06/20 09:09:44;;;;;;;1.30;1.20;;;;;;;32.22;32.90;101479.17;1396905;102;21741;-49
2022/06/20 09:12:40;;;;;;;1.30;1.20;;;;;;;32.23;32.83;101479.03;1396584;102;21144;-50
2022/06/20 09:15:39;;;;;;;1.00;1.00;;;;;;;32.23;32.97;101473.65;1389802;102;21640;-50
2022/06/20 09:18:29;;;;;;;1.67;1.37;;;;;;;32.23;32.59;101470.11;1396775;101;21197;-49
2022/06/20 09:21:01;;;;;;;1.87;1.35;;;;;;;32.21;32.75;101459.98;1395399;102;21212;-50
2022/06/20 09:23:46;;;;;;;1.35;1.25;;;;;;;32.18;32.67;101457.59;1394554;103;21144;-50
2022/06/20 09:26:30;;;;;;;1.20;1.10;;;;;;;32.15;33.10;101449.31;1399873;102;21205;-49
2022/06/20 09:29:40;;;;;;;1.40;1.30;;;;;;;32.13;32.99;101450.50;1446116;99;21171;-49
2022/06/20 09:32:37;;;;;;;1.50;1.40;;;;;;;32.07;32.89;101447.41;1446084;98;21101;-51
2022/06/20 09:35:35;;;;;;;1.27;1.17;;;;;;;32.00;33.24;101445.02;1465497;96;21620;-53
2022/06/20 09:38:37;;;;;;;1.70;1.22;;;;;;;31.96;33.73;101446.29;1489775;95;21572;-53
2022/06/20 09:41:28;;;;;;;;;;;;;;;31.92;33.50;101442.70;1500339;95;21136;-51
2022/06/20 09:44:17;;;;;;;;;;;;;;;31.88;34.01;101444.84;1517193;94;20145;-51
2022/06/20 09:47:00;;;;;;;1.22;1.12;;;;;;;31.83;33.84;101439.09;1527567;92;20146;-52
2022/06/20 09:50:12;;;;;;;1.32;1.25;;;;;;;31.79;33.40;101440.39;1528644;92;21648;-50
2022/06/20 09:53:17;;;;;;;1.27;1.15;;;;;;;31.75;33.56;101441.70;1528373;92;21084;-52
2022/06/20 09:56:10;;;;;;;1.42;1.32;;;;;;;31.70;33.51;101439.95;1529181;92;21092;-52
2022/06/20 09:59:07;;;;;;;1.80;1.50;;;;;;;31.67;33.89;101434.05;1615350;86;21137;-50
2022/06/20 10:01:42;;;;;;;1.30;1.20;;;;;;;31.65;34.37;101427.48;1642582;85;21068;-50
2022/06/20 10:04:40;;;;;;;1.77;1.20;;;;;;;31.65;33.60;101430.17;1645402;85;21564;-50
2022/06/20 10:07:33;;;;;;;1.50;1.40;;;;;;;31.64;34.05;101430.30;1645313;85;21033;-50
2022/06/20 10:10:21;;;;;;;1.00;1.00;;;;;;;31.63;34.49;101422.75;1635078;87;21548;-50
2022/06/20 10:13:12;;;;;;;1.47;1.27;;;;;;;31.64;34.03;101422.23;1643193;85;21009;-50
2022/06/20 10:15:52;;;;;;;;;;;;;;;31.63;34.08;101420.55;1691135;82;20996;-49
2022/06/20 10:18:41;;;;;;;1.25;1.15;;;;;;;31.63;33.74;101416.02;1718188;82;20102;-51
2022/06/20 10:21:16;;;;;;;2.00;1.27;;;;;;;31.63;33.89;101416.02;1718854;82;21086;-49
2022/06/20 10:24:35;;;;;;;1.40;1.30;;;;;;;31.63;34.21;101409.30;1718233;82;21082;-52
2022/06/20 10:27:42;;;;;;;2.12;1.30;;;;;;;31.63;34.01;101411.98;1732539;81;21015;-51
2022/06/20 10:30:15;;;;;;;1.20;1.10;;;;;;;31.63;33.49;101409.30;1683679;84;21087;-51
2022/06/20 10:33:08;;;;;;;1.37;1.27;;;;;;;31.65;34.00;101408.64;1742184;80;21554;-50
2022/06/20 10:35:42;;;;;;;1.12;1.12;;;;;;;31.66;33.92;101404.94;1747470;81;21066;-50
2022/06/20 10:38:23;;;;;;;2.05;1.30;;;;;;;31.65;33.48;101403.27;1745996;80;21062;-51
2022/06/20 10:41:26;;;;;;;2.10;1.35;;;;;;;31.65;33.06;101403.27;1653291;85;21133;-53
2022/06/20 10:44:01;;;;;;;1.40;1.30;;;;;;;31.66;33.18;101398.70;1642930;87;21065;-50
2022/06/20 10:46:43;;;;;;;1.45;1.35;;;;;;;31.66;33.81;101396.86;1632894;87;21569;-49
2022/06/20 10:49:36;;;;;;;1.82;1.20;;;;;;;31.68;34.18;101400.25;1642277;87;21062;-50
2022/06/20 10:52:31;;;;;;;1.35;1.17;;;;;;;31.71;33.87;101398.61;1641811;87;21058;-54
2022/06/20 10:55:07;;;;;;;1.30;1.20;;;;;;;31.74;33.63;101401.47;1637927;87;21050;-50
2022/06/20 10:58:10;;;;;;;1.40;1.30;;;;;;;31.75;33.95;101395.95;1638122;87;21081;-50
2022/06/20 11:00:42;;;;;;;1.35;1.25;;;;;;;31.77;34.30;101392.61;1601891;89;21078;-49
2022/06/20 11:03:36;;;;;;;1.55;1.45;;;;;;;31.80;34.26;101390.12;1640579;87;21015;-52
2022/06/20 11:06:14;;;;;;;2.27;1.22;;;;;;;31.80;34.35;101390.94;1632983;87;21094;-51
2022/06/20 11:09:13;;;;;;;1.50;1.40;;;;;;;31.80;34.58;101396.32;1597909;89;21588;-51
2022/06/20 11:12:01;;;;;;;1.70;1.60;;;;;;;31.80;35.07;101388.25;1601356;89;21047;-52
2022/06/20 11:15:04;;;;;;;1.70;1.60;;;;;;;31.81;35.64;101385.91;1599101;89;21093;-55
2022/06/20 11:18:10;;;;;;;1.57;1.45;;;;;;;31.82;35.68;101388.94;1588774;87;21116;-49
2022/06/20 11:20:45;;;;;;;1.30;1.20;;;;;;;31.81;35.82;101379.19;1619030;87;21127;-49
2022/06/20 11:23:26;;;;;;;1.82;1.42;;;;;;;31.79;35.79;101378.50;1605519;87;21069;-50
2022/06/20 11:26:23;;;;;;;1.20;1.20;;;;;;;31.79;35.91;101377.16;1616292;87;21053;-53
2022/06/20 11:29:23;;;;;;;2.30;1.65;;;;;;;31.79;35.65;101373.61;1575755;90;21166;-51
2022/06/20 11:32:05;;;;;;;2.90;1.40;;;;;;;31.79;35.67;101366.39;1485959;96;21559;-54
2022/06/20 11:34:55;;;;;;;1.60;1.50;;;;;;;31.80;35.91;101366.72;1489903;95;21134;-50
2022/06/20 11:37:26;;;;;;;;;;;;;;;31.81;36.28;101364.39;1487860;96;21122;-55
2022/06/20 11:40:32;;;;;;;2.87;1.60;;;;;;;31.80;36.63;101360.52;1495172;95;20150;-52
2022/06/20 11:43:27;;;;;;;1.80;1.70;;;;;;;31.79;36.83;101356.97;1505306;94;21622;-51
2022/06/20 11:46:26;;;;;;;1.87;1.77;;;;;;;31.78;36.96;101355.27;1492689;95;21114;-49
2022/06/20 11:49:11;;;;;;;1.60;1.50;;;;;;;31.77;37.13;101350.90;1505228;95;21098;-51
2022/06/20 11:52:21;;;;;;;2.42;1.75;;;;;;;31.77;37.26;101353.59;1500813;94;21590;-51
2022/06/20 11:55:13;;;;;;;1.82;1.72;;;;;;;31.75;37.40;101342.14;1473520;96;21138;-51
2022/06/20 11:57:54;;;;;;;2.70;1.77;;;;;;;31.73;37.64;101343.28;1499314;95;21626;-50
2022/06/20 12:00:28;;;;;;;2.22;2.02;;;;;;;31.69;37.88;101345.45;1521484;91;21087;-48
2022/06/20 12:03:43;;;;;;;1.75;1.65;;;;;;;31.67;38.12;101346.10;1557189;91;21613;-48
2022/06/20 12:06:40;;;;;;;1.70;1.60;;;;;;;31.65;38.28;101351.29;1560581;91;21145;-50
2022/06/20 12:09:24;;;;;;;1.70;1.60;;;;;;;31.62;38.40;101347.05;1558213;90;21118;-50
2022/06/20 12:12:20;;;;;;;1.87;1.67;;;;;;;31.62;38.56;101348.40;1558090;90;21055;-51
2022/06/20 12:15:18;;;;;;;2.05;1.52;;;;;;;31.62;38.49;101338.98;1558170;90;21086;-52
2022/06/20 12:18:20;;;;;;;1.50;1.40;;;;;;;31.60;38.40;101335.60;1549923;90;21116;-51
2022/06/20 12:23:48;;;;;;;4.00;1.57;;;;;;;31.56;38.45;101336.06;1513648;93;21125;-51
2022/06/20 12:26:31;;;;;;;1.70;1.60;;;;;;;31.53;38.34;101328.31;1513789;92;21110;-52
2022/06/20 12:29:00;;;;;;;1.70;1.47;;;;;;;31.51;38.79;101335.17;1540400;92;21094;-51
2022/06/20 12:31:38;;;;;;;1.95;1.75;;;;;;;31.51;38.57;101330.31;1545503;91;21748;-50
2022/06/20 12:34:34;;;;;;;2.00;1.55;;;;;;;31.50;38.61;101326.77;1545313;91;21125;-49
2022/06/20 12:37:24;;;;;;;1.55;1.45;;;;;;;31.49;38.77;101322.38;1548103;91;21097;-50